sensor_id;sensor_type;location;lat;lon;timestamp;P1;durP1;ratioP1;P2;durP2;ratioP2
55672;SDS011;41554;45.366;20.400;2023-05-10T00:00:35;7.30;;;6.10;;
55672;SDS011;41554;45.366;20.400;2023-05-10T00:03:01;11.23;;;6.70;;
55672;SDS011;41554;45.366;20.400;2023-05-10T00:05:29;7.20;;;5.38;;
55672;SDS011;41554;45.366;20.400;2023-05-10T00:07:55;7.00;;;5.28;;
55672;SDS011;41554;45.366;20.400;2023-05-10T00:10:21;5.65;;;5.05;;
55672;SDS011;41554;45.366;20.400;2023-05-10T00:12:47;7.90;;;5.88;;
55672;SDS011;41554;45.366;20.400;2023-05-10T00:15:13;7.30;;;6.22;;
55672;SDS011;41554;45.366;20.400;2023-05-10T00:17:39;7.80;;;6.97;;
55672;SDS011;41554;45.366;20.400;2023-05-10T00:20:05;9.55;;;7.82;;
55672;SDS011;41554;45.366;20.400;2023-05-10T00:22:32;9.82;;;6.20;;
55672;SDS011;41554;45.366;20.400;2023-05-10T00:24:58;9.60;;;6.53;;
55672;SDS011;41554;45.366;20.400;2023-05-10T00:27:24;7.75;;;5.38;;
55672;SDS011;41554;45.366;20.400;2023-05-10T00:29:50;6.15;;;5.43;;
55672;SDS011;41554;45.366;20.400;2023-05-10T00:32:16;10.60;;;6.88;;
55672;SDS011;41554;45.366;20.400;2023-05-10T00:34:42;14.65;;;6.22;;
55672;SDS011;41554;45.366;20.400;2023-05-10T00:37:08;12.25;;;5.05;;
55672;SDS011;41554;45.366;20.400;2023-05-10T00:39:34;7.07;;;5.63;;
55672;SDS011;41554;45.366;20.400;2023-05-10T00:42:00;10.43;;;6.75;;
55672;SDS011;41554;45.366;20.400;2023-05-10T00:44:27;5.65;;;4.97;;
55672;SDS011;41554;45.366;20.400;2023-05-10T00:46:53;9.57;;;7.55;;
55672;SDS011;41554;45.366;20.400;2023-05-10T00:49:19;8.77;;;5.50;;
55672;SDS011;41554;45.366;20.400;2023-05-10T00:51:45;7.22;;;5.38;;
55672;SDS011;41554;45.366;20.400;2023-05-10T00:54:12;9.40;;;5.55;;
55672;SDS011;41554;45.366;20.400;2023-05-10T00:56:40;6.70;;;5.60;;
55672;SDS011;41554;45.366;20.400;2023-05-10T00:59:06;9.43;;;5.47;;
55672;SDS011;41554;45.366;20.400;2023-05-10T01:01:33;6.30;;;4.85;;
55672;SDS011;41554;45.366;20.400;2023-05-10T01:04:00;10.27;;;5.65;;
55672;SDS011;41554;45.366;20.400;2023-05-10T01:06:26;8.68;;;6.00;;
55672;SDS011;41554;45.366;20.400;2023-05-10T01:08:52;7.47;;;5.72;;
55672;SDS011;41554;45.366;20.400;2023-05-10T01:11:18;7.38;;;6.13;;
55672;SDS011;41554;45.366;20.400;2023-05-10T01:13:45;13.93;;;7.45;;
55672;SDS011;41554;45.366;20.400;2023-05-10T01:16:13;9.43;;;5.95;;
55672;SDS011;41554;45.366;20.400;2023-05-10T01:18:40;9.38;;;5.85;;
55672;SDS011;41554;45.366;20.400;2023-05-10T01:29:18;7.20;;;5.72;;
55672;SDS011;41554;45.366;20.400;2023-05-10T01:34:25;7.90;;;5.25;;
55672;SDS011;41554;45.366;20.400;2023-05-10T01:37:02;7.83;;;7.03;;
55672;SDS011;41554;45.366;20.400;2023-05-10T01:42:05;10.77;;;7.25;;
55672;SDS011;41554;45.366;20.400;2023-05-10T01:44:34;10.70;;;5.68;;
55672;SDS011;41554;45.366;20.400;2023-05-10T01:47:04;10.07;;;6.75;;
55672;SDS011;41554;45.366;20.400;2023-05-10T01:49:32;7.53;;;6.03;;
55672;SDS011;41554;45.366;20.400;2023-05-10T01:52:05;12.90;;;7.72;;
55672;SDS011;41554;45.366;20.400;2023-05-10T01:54:32;8.50;;;6.93;;
55672;SDS011;41554;45.366;20.400;2023-05-10T01:57:03;10.52;;;6.55;;
55672;SDS011;41554;45.366;20.400;2023-05-10T01:59:30;9.88;;;8.20;;
55672;SDS011;41554;45.366;20.400;2023-05-10T02:01:57;10.20;;;7.05;;
55672;SDS011;41554;45.366;20.400;2023-05-10T02:04:24;7.68;;;6.68;;
55672;SDS011;41554;45.366;20.400;2023-05-10T02:06:51;10.63;;;6.45;;
55672;SDS011;41554;45.366;20.400;2023-05-10T02:09:18;8.35;;;6.22;;
55672;SDS011;41554;45.366;20.400;2023-05-10T02:11:45;9.18;;;7.47;;
55672;SDS011;41554;45.366;20.400;2023-05-10T02:14:13;9.60;;;6.85;;
55672;SDS011;41554;45.366;20.400;2023-05-10T02:16:40;10.75;;;6.78;;
55672;SDS011;41554;45.366;20.400;2023-05-10T02:19:06;8.95;;;6.32;;
55672;SDS011;41554;45.366;20.400;2023-05-10T02:21:33;11.32;;;7.07;;
55672;SDS011;41554;45.366;20.400;2023-05-10T02:24:00;9.10;;;6.82;;
55672;SDS011;41554;45.366;20.400;2023-05-10T02:26:27;10.07;;;7.18;;
55672;SDS011;41554;45.366;20.400;2023-05-10T02:28:53;8.40;;;7.10;;
55672;SDS011;41554;45.366;20.400;2023-05-10T02:31:20;7.50;;;5.97;;
55672;SDS011;41554;45.366;20.400;2023-05-10T02:33:46;7.95;;;6.97;;
55672;SDS011;41554;45.366;20.400;2023-05-10T02:36:13;6.55;;;5.50;;
55672;SDS011;41554;45.366;20.400;2023-05-10T02:38:40;8.30;;;6.78;;
55672;SDS011;41554;45.366;20.400;2023-05-10T02:41:07;9.10;;;7.13;;
55672;SDS011;41554;45.366;20.400;2023-05-10T02:43:34;10.27;;;6.03;;
55672;SDS011;41554;45.366;20.400;2023-05-10T02:46:01;8.05;;;6.55;;
55672;SDS011;41554;45.366;20.400;2023-05-10T02:48:27;7.55;;;5.90;;
55672;SDS011;41554;45.366;20.400;2023-05-10T02:50:54;13.23;;;6.55;;
55672;SDS011;41554;45.366;20.400;2023-05-10T02:53:30;11.32;;;6.60;;
55672;SDS011;41554;45.366;20.400;2023-05-10T02:55:57;8.25;;;6.80;;
55672;SDS011;41554;45.366;20.400;2023-05-10T02:58:23;9.43;;;6.90;;
55672;SDS011;41554;45.366;20.400;2023-05-10T03:00:50;10.55;;;6.00;;
55672;SDS011;41554;45.366;20.400;2023-05-10T03:03:16;8.10;;;6.75;;
55672;SDS011;41554;45.366;20.400;2023-05-10T03:05:42;8.27;;;6.32;;
55672;SDS011;41554;45.366;20.400;2023-05-10T03:08:08;7.53;;;6.43;;
55672;SDS011;41554;45.366;20.400;2023-05-10T03:10:39;7.13;;;6.22;;
55672;SDS011;41554;45.366;20.400;2023-05-10T03:13:16;8.30;;;6.38;;
55672;SDS011;41554;45.366;20.400;2023-05-10T03:18:18;10.45;;;6.80;;
55672;SDS011;41554;45.366;20.400;2023-05-10T03:20:47;9.65;;;6.40;;
55672;SDS011;41554;45.366;20.400;2023-05-10T03:25:46;10.85;;;6.95;;
55672;SDS011;41554;45.366;20.400;2023-05-10T03:28:14;5.80;;;5.07;;
55672;SDS011;41554;45.366;20.400;2023-05-10T03:30:41;8.75;;;6.45;;
55672;SDS011;41554;45.366;20.400;2023-05-10T03:33:08;6.72;;;5.97;;
55672;SDS011;41554;45.366;20.400;2023-05-10T03:35:34;14.90;;;6.35;;
55672;SDS011;41554;45.366;20.400;2023-05-10T03:38:01;7.90;;;5.78;;
55672;SDS011;41554;45.366;20.400;2023-05-10T03:40:27;7.88;;;6.28;;
55672;SDS011;41554;45.366;20.400;2023-05-10T03:42:56;6.97;;;5.05;;
55672;SDS011;41554;45.366;20.400;2023-05-10T03:45:22;8.98;;;6.70;;
55672;SDS011;41554;45.366;20.400;2023-05-10T03:47:48;6.32;;;5.47;;
55672;SDS011;41554;45.366;20.400;2023-05-10T03:50:14;7.85;;;5.85;;
55672;SDS011;41554;45.366;20.400;2023-05-10T03:52:40;9.68;;;5.93;;
55672;SDS011;41554;45.366;20.400;2023-05-10T03:55:06;6.28;;;5.65;;
55672;SDS011;41554;45.366;20.400;2023-05-10T03:57:33;7.30;;;5.60;;
55672;SDS011;41554;45.366;20.400;2023-05-10T03:59:59;20.85;;;6.18;;
55672;SDS011;41554;45.366;20.400;2023-05-10T04:02:25;5.28;;;4.60;;
55672;SDS011;41554;45.366;20.400;2023-05-10T04:04:51;7.75;;;5.65;;
55672;SDS011;41554;45.366;20.400;2023-05-10T04:07:17;7.47;;;5.28;;
55672;SDS011;41554;45.366;20.400;2023-05-10T04:09:43;8.57;;;5.40;;
55672;SDS011;41554;45.366;20.400;2023-05-10T04:12:10;6.15;;;5.50;;
55672;SDS011;41554;45.366;20.400;2023-05-10T04:14:36;11.23;;;5.57;;
55672;SDS011;41554;45.366;20.400;2023-05-10T04:17:02;6.88;;;5.35;;
55672;SDS011;41554;45.366;20.400;2023-05-10T04:19:28;10.57;;;5.90;;
55672;SDS011;41554;45.366;20.400;2023-05-10T04:21:55;6.25;;;5.60;;
55672;SDS011;41554;45.366;20.400;2023-05-10T04:24:21;8.88;;;5.75;;
55672;SDS011;41554;45.366;20.400;2023-05-10T04:26:47;7.10;;;5.20;;
55672;SDS011;41554;45.366;20.400;2023-05-10T04:29:13;11.93;;;5.70;;
55672;SDS011;41554;45.366;20.400;2023-05-10T04:31:39;9.77;;;7.03;;
55672;SDS011;41554;45.366;20.400;2023-05-10T04:34:05;6.47;;;4.60;;
55672;SDS011;41554;45.366;20.400;2023-05-10T04:36:31;6.57;;;5.22;;
55672;SDS011;41554;45.366;20.400;2023-05-10T04:39:01;8.88;;;5.30;;
55672;SDS011;41554;45.366;20.400;2023-05-10T04:41:28;11.90;;;6.45;;
55672;SDS011;41554;45.366;20.400;2023-05-10T04:43:54;9.52;;;4.88;;
55672;SDS011;41554;45.366;20.400;2023-05-10T04:46:20;5.43;;;4.25;;
55672;SDS011;41554;45.366;20.400;2023-05-10T04:48:46;9.75;;;5.97;;
55672;SDS011;41554;45.366;20.400;2023-05-10T04:51:12;6.32;;;4.75;;
55672;SDS011;41554;45.366;20.400;2023-05-10T04:53:38;7.13;;;5.95;;
55672;SDS011;41554;45.366;20.400;2023-05-10T04:56:04;8.27;;;4.85;;
55672;SDS011;41554;45.366;20.400;2023-05-10T04:58:30;7.07;;;6.35;;
55672;SDS011;41554;45.366;20.400;2023-05-10T05:00:57;6.55;;;5.90;;
55672;SDS011;41554;45.366;20.400;2023-05-10T05:03:23;6.15;;;5.55;;
55672;SDS011;41554;45.366;20.400;2023-05-10T05:05:49;9.82;;;6.38;;
55672;SDS011;41554;45.366;20.400;2023-05-10T05:08:15;5.97;;;5.38;;
55672;SDS011;41554;45.366;20.400;2023-05-10T05:10:41;7.20;;;5.15;;
55672;SDS011;41554;45.366;20.400;2023-05-10T05:13:07;9.07;;;6.10;;
55672;SDS011;41554;45.366;20.400;2023-05-10T05:15:33;9.65;;;6.80;;
55672;SDS011;41554;45.366;20.400;2023-05-10T05:17:59;8.95;;;6.78;;
55672;SDS011;41554;45.366;20.400;2023-05-10T05:20:25;8.15;;;6.18;;
55672;SDS011;41554;45.366;20.400;2023-05-10T05:22:51;8.77;;;7.30;;
55672;SDS011;41554;45.366;20.400;2023-05-10T05:25:17;7.57;;;5.70;;
55672;SDS011;41554;45.366;20.400;2023-05-10T05:27:43;8.77;;;6.72;;
55672;SDS011;41554;45.366;20.400;2023-05-10T05:30:09;7.30;;;4.93;;
55672;SDS011;41554;45.366;20.400;2023-05-10T05:32:36;6.47;;;4.60;;
55672;SDS011;41554;45.366;20.400;2023-05-10T05:35:02;8.13;;;6.07;;
55672;SDS011;41554;45.366;20.400;2023-05-10T05:37:28;13.75;;;5.82;;
55672;SDS011;41554;45.366;20.400;2023-05-10T05:39:54;7.43;;;5.40;;
55672;SDS011;41554;45.366;20.400;2023-05-10T05:42:20;7.32;;;5.68;;
55672;SDS011;41554;45.366;20.400;2023-05-10T05:44:46;9.23;;;5.82;;
55672;SDS011;41554;45.366;20.400;2023-05-10T05:47:12;16.67;;;5.25;;
55672;SDS011;41554;45.366;20.400;2023-05-10T05:49:38;7.65;;;6.00;;
55672;SDS011;41554;45.366;20.400;2023-05-10T05:52:04;6.50;;;4.88;;
55672;SDS011;41554;45.366;20.400;2023-05-10T05:54:31;11.65;;;5.95;;
55672;SDS011;41554;45.366;20.400;2023-05-10T05:56:57;12.20;;;5.65;;
55672;SDS011;41554;45.366;20.400;2023-05-10T05:59:24;5.32;;;4.82;;
55672;SDS011;41554;45.366;20.400;2023-05-10T06:01:50;9.05;;;6.30;;
55672;SDS011;41554;45.366;20.400;2023-05-10T06:04:16;9.18;;;4.95;;
55672;SDS011;41554;45.366;20.400;2023-05-10T06:06:42;8.75;;;5.28;;
55672;SDS011;41554;45.366;20.400;2023-05-10T06:09:09;5.82;;;4.15;;
55672;SDS011;41554;45.366;20.400;2023-05-10T06:11:35;7.00;;;5.47;;
55672;SDS011;41554;45.366;20.400;2023-05-10T06:14:01;6.22;;;4.70;;
55672;SDS011;41554;45.366;20.400;2023-05-10T06:16:29;9.45;;;4.50;;
55672;SDS011;41554;45.366;20.400;2023-05-10T06:18:55;6.45;;;4.97;;
55672;SDS011;41554;45.366;20.400;2023-05-10T06:21:21;6.85;;;5.20;;
55672;SDS011;41554;45.366;20.400;2023-05-10T06:23:47;12.07;;;5.93;;
55672;SDS011;41554;45.366;20.400;2023-05-10T06:26:13;6.22;;;5.47;;
55672;SDS011;41554;45.366;20.400;2023-05-10T06:28:39;7.65;;;4.88;;
55672;SDS011;41554;45.366;20.400;2023-05-10T06:31:06;5.88;;;5.18;;
55672;SDS011;41554;45.366;20.400;2023-05-10T06:33:32;5.72;;;5.13;;
55672;SDS011;41554;45.366;20.400;2023-05-10T06:35:58;7.35;;;5.72;;
55672;SDS011;41554;45.366;20.400;2023-05-10T06:38:25;6.22;;;5.63;;
55672;SDS011;41554;45.366;20.400;2023-05-10T06:40:51;5.38;;;4.10;;
55672;SDS011;41554;45.366;20.400;2023-05-10T06:43:17;6.93;;;4.65;;
55672;SDS011;41554;45.366;20.400;2023-05-10T06:45:43;7.57;;;5.53;;
55672;SDS011;41554;45.366;20.400;2023-05-10T06:48:09;5.38;;;4.32;;
55672;SDS011;41554;45.366;20.400;2023-05-10T06:50:35;12.70;;;4.80;;
55672;SDS011;41554;45.366;20.400;2023-05-10T06:53:01;4.93;;;3.78;;
55672;SDS011;41554;45.366;20.400;2023-05-10T06:55:27;11.27;;;5.10;;
55672;SDS011;41554;45.366;20.400;2023-05-10T06:57:54;5.88;;;4.35;;
55672;SDS011;41554;45.366;20.400;2023-05-10T07:00:20;9.35;;;4.90;;
55672;SDS011;41554;45.366;20.400;2023-05-10T07:02:46;11.70;;;4.28;;
55672;SDS011;41554;45.366;20.400;2023-05-10T07:05:12;7.40;;;4.43;;
55672;SDS011;41554;45.366;20.400;2023-05-10T07:07:39;15.15;;;5.10;;
55672;SDS011;41554;45.366;20.400;2023-05-10T07:10:05;5.85;;;4.32;;
55672;SDS011;41554;45.366;20.400;2023-05-10T07:12:32;17.25;;;5.80;;
55672;SDS011;41554;45.366;20.400;2023-05-10T07:14:58;13.73;;;5.65;;
55672;SDS011;41554;45.366;20.400;2023-05-10T07:17:24;12.90;;;4.13;;
55672;SDS011;41554;45.366;20.400;2023-05-10T07:19:50;9.88;;;7.25;;
55672;SDS011;41554;45.366;20.400;2023-05-10T07:22:16;7.68;;;5.85;;
55672;SDS011;41554;45.366;20.400;2023-05-10T07:24:42;6.72;;;4.32;;
55672;SDS011;41554;45.366;20.400;2023-05-10T07:27:08;8.18;;;4.53;;
55672;SDS011;41554;45.366;20.400;2023-05-10T07:29:35;8.52;;;5.78;;
55672;SDS011;41554;45.366;20.400;2023-05-10T07:32:02;7.40;;;5.68;;
55672;SDS011;41554;45.366;20.400;2023-05-10T07:34:28;6.60;;;4.72;;
55672;SDS011;41554;45.366;20.400;2023-05-10T07:36:56;11.63;;;5.05;;
55672;SDS011;41554;45.366;20.400;2023-05-10T07:39:22;5.28;;;4.47;;
55672;SDS011;41554;45.366;20.400;2023-05-10T07:41:48;7.18;;;6.22;;
55672;SDS011;41554;45.366;20.400;2023-05-10T07:44:14;8.65;;;5.22;;
55672;SDS011;41554;45.366;20.400;2023-05-10T07:46:43;5.53;;;4.47;;
55672;SDS011;41554;45.366;20.400;2023-05-10T07:49:09;8.85;;;5.03;;
55672;SDS011;41554;45.366;20.400;2023-05-10T07:51:35;7.45;;;5.63;;
55672;SDS011;41554;45.366;20.400;2023-05-10T07:54:01;6.05;;;5.25;;
55672;SDS011;41554;45.366;20.400;2023-05-10T07:56:30;14.38;;;5.20;;
55672;SDS011;41554;45.366;20.400;2023-05-10T07:58:58;7.38;;;4.78;;
55672;SDS011;41554;45.366;20.400;2023-05-10T08:01:25;10.68;;;5.57;;
55672;SDS011;41554;45.366;20.400;2023-05-10T08:03:51;7.13;;;5.68;;
55672;SDS011;41554;45.366;20.400;2023-05-10T08:06:19;10.90;;;6.38;;
55672;SDS011;41554;45.366;20.400;2023-05-10T08:08:45;9.55;;;5.30;;
55672;SDS011;41554;45.366;20.400;2023-05-10T08:11:16;7.78;;;5.03;;
55672;SDS011;41554;45.366;20.400;2023-05-10T08:13:42;6.65;;;4.53;;
55672;SDS011;41554;45.366;20.400;2023-05-10T08:16:08;8.88;;;4.63;;
55672;SDS011;41554;45.366;20.400;2023-05-10T08:18:34;5.47;;;4.40;;
55672;SDS011;41554;45.366;20.400;2023-05-10T08:21:00;6.75;;;4.65;;
55672;SDS011;41554;45.366;20.400;2023-05-10T08:23:26;10.52;;;3.55;;
55672;SDS011;41554;45.366;20.400;2023-05-10T08:25:52;6.07;;;4.20;;
55672;SDS011;41554;45.366;20.400;2023-05-10T08:28:18;6.40;;;4.05;;
55672;SDS011;41554;45.366;20.400;2023-05-10T08:30:44;6.10;;;5.18;;
55672;SDS011;41554;45.366;20.400;2023-05-10T08:33:10;7.80;;;3.70;;
55672;SDS011;41554;45.366;20.400;2023-05-10T08:35:37;17.75;;;5.10;;
55672;SDS011;41554;45.366;20.400;2023-05-10T08:38:03;5.80;;;4.47;;
55672;SDS011;41554;45.366;20.400;2023-05-10T08:40:29;12.13;;;4.13;;
55672;SDS011;41554;45.366;20.400;2023-05-10T08:43:08;6.75;;;4.40;;
55672;SDS011;41554;45.366;20.400;2023-05-10T08:45:38;3.80;;;2.80;;
55672;SDS011;41554;45.366;20.400;2023-05-10T08:48:06;5.55;;;3.25;;
55672;SDS011;41554;45.366;20.400;2023-05-10T08:50:33;15.27;;;4.90;;
55672;SDS011;41554;45.366;20.400;2023-05-10T08:53:02;6.25;;;3.40;;
55672;SDS011;41554;45.366;20.400;2023-05-10T08:55:29;5.57;;;3.20;;
55672;SDS011;41554;45.366;20.400;2023-05-10T08:57:55;8.68;;;3.60;;
55672;SDS011;41554;45.366;20.400;2023-05-10T09:00:22;6.40;;;3.70;;
55672;SDS011;41554;45.366;20.400;2023-05-10T09:02:49;8.45;;;4.40;;
55672;SDS011;41554;45.366;20.400;2023-05-10T09:05:15;5.57;;;3.55;;
55672;SDS011;41554;45.366;20.400;2023-05-10T09:07:42;3.75;;;2.75;;
55672;SDS011;41554;45.366;20.400;2023-05-10T09:10:08;6.72;;;3.60;;
55672;SDS011;41554;45.366;20.400;2023-05-10T09:12:35;9.32;;;3.85;;
55672;SDS011;41554;45.366;20.400;2023-05-10T09:15:01;5.60;;;3.03;;
55672;SDS011;41554;45.366;20.400;2023-05-10T09:17:27;3.92;;;3.53;;
55672;SDS011;41554;45.366;20.400;2023-05-10T09:19:58;4.40;;;2.80;;
55672;SDS011;41554;45.366;20.400;2023-05-10T09:22:24;4.68;;;3.58;;
55672;SDS011;41554;45.366;20.400;2023-05-10T09:25:10;6.80;;;3.72;;
55672;SDS011;41554;45.366;20.400;2023-05-10T09:27:37;8.77;;;3.55;;
55672;SDS011;41554;45.366;20.400;2023-05-10T09:30:03;6.45;;;4.13;;
55672;SDS011;41554;45.366;20.400;2023-05-10T09:32:40;7.50;;;3.55;;
55672;SDS011;41554;45.366;20.400;2023-05-10T09:37:35;4.70;;;3.13;;
55672;SDS011;41554;45.366;20.400;2023-05-10T09:40:04;12.40;;;4.22;;
55672;SDS011;41554;45.366;20.400;2023-05-10T09:42:30;16.25;;;3.03;;
55672;SDS011;41554;45.366;20.400;2023-05-10T09:44:59;5.00;;;3.55;;
55672;SDS011;41554;45.366;20.400;2023-05-10T09:47:26;6.78;;;4.95;;
55672;SDS011;41554;45.366;20.400;2023-05-10T09:49:55;15.75;;;5.97;;
55672;SDS011;41554;45.366;20.400;2023-05-10T09:52:23;5.05;;;3.05;;
55672;SDS011;41554;45.366;20.400;2023-05-10T09:54:52;5.68;;;2.92;;
55672;SDS011;41554;45.366;20.400;2023-05-10T09:57:22;13.95;;;4.45;;
55672;SDS011;41554;45.366;20.400;2023-05-10T09:59:48;6.95;;;3.42;;
55672;SDS011;41554;45.366;20.400;2023-05-10T10:02:15;6.28;;;2.92;;
55672;SDS011;41554;45.366;20.400;2023-05-10T10:04:42;5.35;;;2.38;;
55672;SDS011;41554;45.366;20.400;2023-05-10T10:07:08;11.35;;;3.25;;
55672;SDS011;41554;45.366;20.400;2023-05-10T10:09:34;18.98;;;4.53;;
55672;SDS011;41554;45.366;20.400;2023-05-10T10:12:01;7.68;;;3.08;;
55672;SDS011;41554;45.366;20.400;2023-05-10T10:14:28;9.25;;;4.35;;
55672;SDS011;41554;45.366;20.400;2023-05-10T10:16:54;4.88;;;2.55;;
55672;SDS011;41554;45.366;20.400;2023-05-10T10:19:21;5.13;;;2.60;;
55672;SDS011;41554;45.366;20.400;2023-05-10T10:21:48;3.40;;;2.53;;
55672;SDS011;41554;45.366;20.400;2023-05-10T10:24:14;9.75;;;3.45;;
55672;SDS011;41554;45.366;20.400;2023-05-10T10:26:41;6.65;;;4.28;;
55672;SDS011;41554;45.366;20.400;2023-05-10T10:29:23;4.93;;;3.17;;
55672;SDS011;41554;45.366;20.400;2023-05-10T10:34:25;4.47;;;2.63;;
55672;SDS011;41554;45.366;20.400;2023-05-10T10:36:52;22.30;;;3.83;;
55672;SDS011;41554;45.366;20.400;2023-05-10T10:39:19;4.07;;;3.65;;
55672;SDS011;41554;45.366;20.400;2023-05-10T10:41:52;5.47;;;3.72;;
55672;SDS011;41554;45.366;20.400;2023-05-10T10:46:58;3.85;;;2.97;;
55672;SDS011;41554;45.366;20.400;2023-05-10T10:49:25;5.68;;;3.28;;
55672;SDS011;41554;45.366;20.400;2023-05-10T10:54:36;7.05;;;2.85;;
55672;SDS011;41554;45.366;20.400;2023-05-10T10:57:12;6.68;;;3.55;;
55672;SDS011;41554;45.366;20.400;2023-05-10T10:59:44;13.60;;;3.50;;
55672;SDS011;41554;45.366;20.400;2023-05-10T11:04:56;11.88;;;5.45;;
55672;SDS011;41554;45.366;20.400;2023-05-10T11:07:22;11.57;;;3.05;;
55672;SDS011;41554;45.366;20.400;2023-05-10T11:09:48;7.25;;;3.40;;
55672;SDS011;41554;45.366;20.400;2023-05-10T11:12:14;12.02;;;3.40;;
55672;SDS011;41554;45.366;20.400;2023-05-10T11:14:40;10.52;;;4.32;;
55672;SDS011;41554;45.366;20.400;2023-05-10T11:17:22;10.45;;;3.25;;
55672;SDS011;41554;45.366;20.400;2023-05-10T11:20:09;7.18;;;4.05;;
55672;SDS011;41554;45.366;20.400;2023-05-10T11:25:17;10.68;;;4.30;;
55672;SDS011;41554;45.366;20.400;2023-05-10T11:27:43;15.93;;;6.20;;
55672;SDS011;41554;45.366;20.400;2023-05-10T11:30:10;13.70;;;4.10;;
55672;SDS011;41554;45.366;20.400;2023-05-10T11:32:39;9.82;;;6.78;;
55672;SDS011;41554;45.366;20.400;2023-05-10T11:35:09;3.97;;;3.38;;
55672;SDS011;41554;45.366;20.400;2023-05-10T11:37:35;14.52;;;5.43;;
55672;SDS011;41554;45.366;20.400;2023-05-10T11:40:02;11.43;;;3.85;;
55672;SDS011;41554;45.366;20.400;2023-05-10T11:42:28;4.60;;;3.17;;
55672;SDS011;41554;45.366;20.400;2023-05-10T11:44:55;3.03;;;2.67;;
55672;SDS011;41554;45.366;20.400;2023-05-10T11:47:21;6.57;;;4.50;;
55672;SDS011;41554;45.366;20.400;2023-05-10T11:49:47;10.75;;;3.20;;
55672;SDS011;41554;45.366;20.400;2023-05-10T11:52:13;5.15;;;3.30;;
55672;SDS011;41554;45.366;20.400;2023-05-10T11:54:50;3.42;;;2.15;;
55672;SDS011;41554;45.366;20.400;2023-05-10T11:57:20;8.38;;;4.07;;
55672;SDS011;41554;45.366;20.400;2023-05-10T11:59:47;4.97;;;2.72;;
55672;SDS011;41554;45.366;20.400;2023-05-10T12:02:13;12.60;;;3.17;;
55672;SDS011;41554;45.366;20.400;2023-05-10T12:04:40;6.70;;;4.80;;
55672;SDS011;41554;45.366;20.400;2023-05-10T12:07:06;3.67;;;3.08;;
55672;SDS011;41554;45.366;20.400;2023-05-10T12:09:32;26.23;;;5.85;;
55672;SDS011;41554;45.366;20.400;2023-05-10T12:11:58;11.90;;;6.63;;
55672;SDS011;41554;45.366;20.400;2023-05-10T12:14:24;8.23;;;4.72;;
55672;SDS011;41554;45.366;20.400;2023-05-10T12:16:50;13.00;;;4.47;;
55672;SDS011;41554;45.366;20.400;2023-05-10T12:19:20;6.65;;;3.38;;
55672;SDS011;41554;45.366;20.400;2023-05-10T12:21:48;7.40;;;3.75;;
55672;SDS011;41554;45.366;20.400;2023-05-10T12:24:37;8.63;;;6.97;;
55672;SDS011;41554;45.366;20.400;2023-05-10T12:27:09;7.07;;;4.10;;
55672;SDS011;41554;45.366;20.400;2023-05-10T12:29:37;7.55;;;3.17;;
55672;SDS011;41554;45.366;20.400;2023-05-10T12:32:09;4.15;;;3.60;;
55672;SDS011;41554;45.366;20.400;2023-05-10T12:34:35;9.88;;;3.35;;
55672;SDS011;41554;45.366;20.400;2023-05-10T12:37:03;6.32;;;3.25;;
55672;SDS011;41554;45.366;20.400;2023-05-10T12:39:42;7.40;;;3.97;;
55672;SDS011;41554;45.366;20.400;2023-05-10T12:42:08;6.30;;;3.75;;
55672;SDS011;41554;45.366;20.400;2023-05-10T12:44:35;5.47;;;3.00;;
55672;SDS011;41554;45.366;20.400;2023-05-10T12:47:01;8.80;;;4.22;;
55672;SDS011;41554;45.366;20.400;2023-05-10T12:49:27;8.40;;;6.25;;
55672;SDS011;41554;45.366;20.400;2023-05-10T12:51:53;10.30;;;2.78;;
55672;SDS011;41554;45.366;20.400;2023-05-10T12:54:19;4.38;;;3.55;;
55672;SDS011;41554;45.366;20.400;2023-05-10T12:56:45;7.85;;;4.15;;
55672;SDS011;41554;45.366;20.400;2023-05-10T12:59:11;7.97;;;4.60;;
55672;SDS011;41554;45.366;20.400;2023-05-10T13:01:37;3.60;;;2.75;;
55672;SDS011;41554;45.366;20.400;2023-05-10T13:04:03;14.10;;;4.13;;
55672;SDS011;41554;45.366;20.400;2023-05-10T13:06:29;8.25;;;2.67;;
55672;SDS011;41554;45.366;20.400;2023-05-10T13:08:55;4.10;;;2.53;;
55672;SDS011;41554;45.366;20.400;2023-05-10T13:11:22;4.38;;;3.15;;
55672;SDS011;41554;45.366;20.400;2023-05-10T13:13:48;2.65;;;2.45;;
55672;SDS011;41554;45.366;20.400;2023-05-10T13:16:14;17.60;;;3.65;;
55672;SDS011;41554;45.366;20.400;2023-05-10T13:18:40;14.80;;;3.33;;
55672;SDS011;41554;45.366;20.400;2023-05-10T13:21:06;7.57;;;1.80;;
55672;SDS011;41554;45.366;20.400;2023-05-10T13:23:33;6.32;;;3.92;;
55672;SDS011;41554;45.366;20.400;2023-05-10T13:25:59;5.03;;;3.58;;
55672;SDS011;41554;45.366;20.400;2023-05-10T13:28:25;19.33;;;5.82;;
55672;SDS011;41554;45.366;20.400;2023-05-10T13:30:51;13.65;;;3.60;;
55672;SDS011;41554;45.366;20.400;2023-05-10T13:33:17;4.47;;;3.03;;
55672;SDS011;41554;45.366;20.400;2023-05-10T13:35:43;2.75;;;2.13;;
55672;SDS011;41554;45.366;20.400;2023-05-10T13:38:10;11.23;;;3.03;;
55672;SDS011;41554;45.366;20.400;2023-05-10T13:40:36;15.50;;;3.08;;
55672;SDS011;41554;45.366;20.400;2023-05-10T13:43:02;3.03;;;2.47;;
55672;SDS011;41554;45.366;20.400;2023-05-10T13:45:28;14.77;;;2.75;;
55672;SDS011;41554;45.366;20.400;2023-05-10T13:47:54;8.38;;;4.18;;
55672;SDS011;41554;45.366;20.400;2023-05-10T13:50:20;15.18;;;3.58;;
55672;SDS011;41554;45.366;20.400;2023-05-10T13:52:46;5.25;;;2.50;;
55672;SDS011;41554;45.366;20.400;2023-05-10T13:55:12;4.55;;;3.20;;
55672;SDS011;41554;45.366;20.400;2023-05-10T13:57:39;8.20;;;3.78;;
55672;SDS011;41554;45.366;20.400;2023-05-10T14:00:05;6.63;;;4.15;;
55672;SDS011;41554;45.366;20.400;2023-05-10T14:02:31;2.63;;;2.30;;
55672;SDS011;41554;45.366;20.400;2023-05-10T14:04:57;3.90;;;2.53;;
55672;SDS011;41554;45.366;20.400;2023-05-10T14:07:23;9.23;;;2.58;;
55672;SDS011;41554;45.366;20.400;2023-05-10T14:09:49;3.88;;;3.13;;
55672;SDS011;41554;45.366;20.400;2023-05-10T14:12:15;6.03;;;3.05;;
55672;SDS011;41554;45.366;20.400;2023-05-10T14:14:41;14.95;;;3.78;;
55672;SDS011;41554;45.366;20.400;2023-05-10T14:17:07;4.20;;;2.30;;
55672;SDS011;41554;45.366;20.400;2023-05-10T14:19:33;3.28;;;2.30;;
55672;SDS011;41554;45.366;20.400;2023-05-10T14:22:00;6.60;;;1.63;;
55672;SDS011;41554;45.366;20.400;2023-05-10T14:24:26;2.58;;;2.33;;
55672;SDS011;41554;45.366;20.400;2023-05-10T14:26:52;6.93;;;2.28;;
55672;SDS011;41554;45.366;20.400;2023-05-10T14:29:19;3.03;;;2.45;;
55672;SDS011;41554;45.366;20.400;2023-05-10T14:31:45;6.38;;;2.83;;
55672;SDS011;41554;45.366;20.400;2023-05-10T14:34:11;6.18;;;2.45;;
55672;SDS011;41554;45.366;20.400;2023-05-10T14:36:37;5.18;;;2.88;;
55672;SDS011;41554;45.366;20.400;2023-05-10T14:39:04;11.65;;;2.58;;
55672;SDS011;41554;45.366;20.400;2023-05-10T14:41:31;3.70;;;2.40;;
55672;SDS011;41554;45.366;20.400;2023-05-10T14:43:57;5.20;;;3.53;;
55672;SDS011;41554;45.366;20.400;2023-05-10T14:46:24;3.65;;;2.65;;
55672;SDS011;41554;45.366;20.400;2023-05-10T14:48:50;4.50;;;2.83;;
55672;SDS011;41554;45.366;20.400;2023-05-10T14:51:16;3.72;;;2.30;;
55672;SDS011;41554;45.366;20.400;2023-05-10T14:53:42;10.93;;;3.45;;
55672;SDS011;41554;45.366;20.400;2023-05-10T14:56:08;5.10;;;2.97;;
55672;SDS011;41554;45.366;20.400;2023-05-10T14:58:34;2.97;;;2.35;;
55672;SDS011;41554;45.366;20.400;2023-05-10T15:01:03;4.35;;;3.22;;
55672;SDS011;41554;45.366;20.400;2023-05-10T15:03:32;3.28;;;2.50;;